Terminal Aerodrome Forecast
Issued by NWS North Platte, NE

Home | Current Version | Previous Version | Text Only | Print | Product List | Glossary On
Versions: 1 2 3 4 5 6 7 8 9 10 11 12 13 14 15 16
000
FTUS43 KLBF 250815 AAA
TAFVTN
TAF AMD
KVTN 250815Z 2508/2606 02010KT P6SM VCSH BKN007
     FM251000 02009KT P6SM BKN050 OVC100
     FM251100 01011KT P6SM -SHRA OVC015
      TEMPO 2514/2518 4SM -SHRA OVC008
     FM251800 01012G18KT P6SM VCSH OVC008
     FM260000 36016G23KT P6SM VCSH OVC008
     FM260300 35015G23KT P6SM OVC008=

USA.gov is the U.S. government's official web portal to all federal, state and local government web resources and services.